Time;durP1;ratioP1;P1;durP2;ratioP2;P2;SDS_P1;SDS_P2;PMS_P1;PMS_P2;Temp;Humidity;BMP_temperature;BMP_pressure;BME280_temperature;BME280_humidity;BME280_pressure;Samples;Min_cycle;Max_cycle;Signal;HPM_P1;HPM_P2
2023/12/10 00:00:00;;;;;;;2.65;1.45;;;;;;;;;;5076274;28;20120;-23
2023/12/10 00:02:26;;;;;;;2.13;1.40;;;;;;;;;;5076649;28;20035;-21
2023/12/10 00:04:53;;;;;;;2.28;1.67;;;;;;;;;;5076337;28;20097;-21
2023/12/10 00:07:19;;;;;;;2.63;1.42;;;;;;;;;;5076460;28;20032;-19
2023/12/10 00:09:45;;;;;;;2.40;2.20;;;;;;;;;;5076073;28;20029;-19
2023/12/10 00:12:11;;;;;;;2.38;1.52;;;;;;;;;;5075120;28;20024;-17
2023/12/10 00:14:37;;;;;;;3.40;1.80;;;;;;;;;;5076099;28;20047;-17
2023/12/10 00:17:04;;;;;;;2.30;1.45;;;;;;;;;;5076085;28;20316;-21
2023/12/10 00:19:31;;;;;;;5.95;2.97;;;;;;;;;;5076444;28;20443;-22
2023/12/10 00:21:57;;;;;;;3.20;2.25;;;;;;;;;;5076109;28;20033;-21
2023/12/10 00:24:24;;;;;;;3.35;1.70;;;;;;;;;;5075920;28;20067;-22
2023/12/10 00:26:50;;;;;;;3.30;1.98;;;;;;;;;;5075823;28;20024;-21
2023/12/10 00:29:16;;;;;;;3.78;1.70;;;;;;;;;;5076030;28;20166;-18
2023/12/10 00:31:43;;;;;;;2.40;1.73;;;;;;;;;;5075758;28;20077;-19
2023/12/10 00:34:09;;;;;;;5.18;2.10;;;;;;;;;;5075534;28;20028;-19
2023/12/10 00:36:36;;;;;;;2.90;1.67;;;;;;;;;;5075653;28;20031;-20
2023/12/10 00:39:05;;;;;;;2.70;1.75;;;;;;;;;;5076061;28;20035;-20
2023/12/10 00:41:31;;;;;;;3.38;1.88;;;;;;;;;;5075450;28;20081;-18
2023/12/10 00:43:57;;;;;;;3.70;1.50;;;;;;;;;;5075437;28;20115;-21
2023/12/10 00:46:23;;;;;;;3.80;1.77;;;;;;;;;;5075703;28;20021;-21
2023/12/10 00:48:50;;;;;;;3.80;2.28;;;;;;;;;;5075381;28;20078;-22
2023/12/10 00:51:20;;;;;;;3.97;1.75;;;;;;;;;;5075362;28;20422;-17
2023/12/10 00:53:46;;;;;;;4.88;1.58;;;;;;;;;;5075205;28;20024;-20
2023/12/10 00:56:12;;;;;;;5.10;2.40;;;;;;;;;;5075253;28;20028;-21
2023/12/10 00:58:38;;;;;;;4.57;1.90;;;;;;;;;;5075735;28;20099;-20
2023/12/10 01:01:05;;;;;;;6.47;3.65;;;;;;;;;;5075093;28;20032;-18
2023/12/10 01:03:31;;;;;;;3.55;2.13;;;;;;;;;;5075294;28;20016;-18
2023/12/10 01:05:57;;;;;;;4.82;2.17;;;;;;;;;;5074899;28;20049;-17
2023/12/10 01:08:23;;;;;;;3.92;2.08;;;;;;;;;;5075573;28;20025;-20
2023/12/10 01:10:49;;;;;;;3.35;2.58;;;;;;;;;;5075060;28;20045;-21
2023/12/10 01:13:16;;;;;;;3.30;1.80;;;;;;;;;;5074950;28;20031;-20
2023/12/10 01:15:42;;;;;;;3.55;1.63;;;;;;;;;;5074996;28;20028;-18
2023/12/10 01:18:08;;;;;;;2.58;1.45;;;;;;;;;;5075182;28;20047;-22
2023/12/10 01:20:36;;;;;;;2.50;1.35;;;;;;;;;;5074822;28;20028;-20
2023/12/10 01:23:04;;;;;;;4.05;2.13;;;;;;;;;;5074845;28;20099;-19
2023/12/10 01:25:30;;;;;;;4.13;2.22;;;;;;;;;;5074782;28;20049;-18
2023/12/10 01:27:56;;;;;;;4.53;2.03;;;;;;;;;;5075044;28;20024;-19
2023/12/10 01:30:26;;;;;;;4.00;2.45;;;;;;;;;;5075056;28;20024;-23
2023/12/10 01:33:00;;;;;;;6.45;2.30;;;;;;;;;;5075193;28;20100;-21
2023/12/10 01:35:26;;;;;;;2.55;1.67;;;;;;;;;;5075036;28;20031;-18
2023/12/10 01:37:53;;;;;;;3.15;1.98;;;;;;;;;;5074986;28;20024;-22
2023/12/10 01:40:19;;;;;;;2.78;1.98;;;;;;;;;;5074545;28;20033;-20
2023/12/10 01:42:46;;;;;;;3.60;2.33;;;;;;;;;;5074500;28;20028;-20
2023/12/10 01:45:12;;;;;;;4.47;2.30;;;;;;;;;;5074593;28;20098;-19
2023/12/10 01:47:43;;;;;;;4.18;2.28;;;;;;;;;;5074859;28;20025;-19
2023/12/10 01:50:12;;;;;;;4.88;2.25;;;;;;;;;;5074587;28;20036;-20
2023/12/10 01:52:42;;;;;;;12.65;2.38;;;;;;;;;;5075005;28;20093;-20
2023/12/10 01:55:11;;;;;;;2.95;2.08;;;;;;;;;;5074520;28;20036;-22
2023/12/10 01:57:41;;;;;;;5.88;2.30;;;;;;;;;;5074785;28;20025;-18
2023/12/10 02:00:08;;;;;;;3.25;2.30;;;;;;;;;;5074398;28;20016;-19
2023/12/10 02:02:34;;;;;;;3.53;2.35;;;;;;;;;;5074321;28;20031;-20
2023/12/10 02:05:05;;;;;;;4.25;1.63;;;;;;;;;;5078385;28;20041;-25
2023/12/10 02:07:31;;;;;;;5.72;2.00;;;;;;;;;;5074739;28;20367;-17
2023/12/10 02:09:57;;;;;;;3.03;1.73;;;;;;;;;;5074652;28;20358;-18
2023/12/10 02:12:24;;;;;;;3.75;2.15;;;;;;;;;;5074295;28;20029;-19
2023/12/10 02:14:50;;;;;;;4.32;2.30;;;;;;;;;;5074823;28;20096;-21
2023/12/10 02:17:16;;;;;;;3.65;2.00;;;;;;;;;;5074589;28;20043;-24
2023/12/10 02:19:42;;;;;;;5.18;1.95;;;;;;;;;;5074213;28;20059;-20
2023/12/10 02:22:14;;;;;;;3.30;1.90;;;;;;;;;;5074432;28;20362;-21
2023/12/10 02:24:40;;;;;;;;;;;;;;;;;;5074984;28;20051;-18
2023/12/10 02:27:06;;;;;;;2.72;1.83;;;;;;;;;;5074516;28;19943;-21
2023/12/10 02:29:33;;;;;;;3.70;2.17;;;;;;;;;;5073193;28;20036;-18
2023/12/10 02:31:59;;;;;;;3.97;2.08;;;;;;;;;;5074016;28;20025;-21
2023/12/10 02:34:25;;;;;;;5.72;2.10;;;;;;;;;;5074073;28;20039;-22
2023/12/10 02:36:51;;;;;;;3.95;2.80;;;;;;;;;;5077655;28;20047;-20
2023/12/10 02:39:18;;;;;;;3.55;1.98;;;;;;;;;;5076937;28;20036;-18
2023/12/10 02:41:44;;;;;;;6.07;2.22;;;;;;;;;;5078120;28;20031;-18
2023/12/10 02:44:10;;;;;;;3.95;2.45;;;;;;;;;;5077666;28;20024;-20
2023/12/10 02:46:37;;;;;;;6.18;2.58;;;;;;;;;;5077661;28;20021;-21
2023/12/10 02:49:03;;;;;;;3.40;1.80;;;;;;;;;;5076722;28;20466;-18
2023/12/10 02:51:29;;;;;;;5.80;2.92;;;;;;;;;;5078187;28;20087;-17
2023/12/10 02:53:55;;;;;;;7.93;2.53;;;;;;;;;;5077625;28;20436;-22
2023/12/10 02:56:21;;;;;;;4.50;2.00;;;;;;;;;;5076623;28;20135;-19
2023/12/10 02:58:47;;;;;;;4.68;3.20;;;;;;;;;;5077541;28;20073;-21
2023/12/10 03:01:14;;;;;;;3.72;1.80;;;;;;;;;;5077430;28;20029;-22
2023/12/10 03:03:40;;;;;;;2.85;1.80;;;;;;;;;;5077554;28;20457;-19
2023/12/10 03:06:07;;;;;;;2.88;1.60;;;;;;;;;;5077237;28;20462;-19
2023/12/10 03:08:33;;;;;;;4.38;2.97;;;;;;;;;;5077908;28;20366;-18
2023/12/10 03:10:59;;;;;;;5.50;3.13;;;;;;;;;;5077575;28;20028;-17
2023/12/10 03:13:25;;;;;;;4.70;2.40;;;;;;;;;;5077331;28;20048;-19
2023/12/10 03:15:52;;;;;;;3.40;2.03;;;;;;;;;;5077214;28;20033;-20
2023/12/10 03:18:18;;;;;;;2.63;1.73;;;;;;;;;;5077201;28;20470;-20
2023/12/10 03:20:44;;;;;;;4.82;1.92;;;;;;;;;;5077874;28;20113;-20
2023/12/10 03:23:10;;;;;;;3.45;2.25;;;;;;;;;;5077525;28;20068;-19
2023/12/10 03:25:36;;;;;;;4.00;2.45;;;;;;;;;;5077580;28;20047;-18
2023/12/10 03:28:02;;;;;;;5.07;2.08;;;;;;;;;;5077039;28;20033;-20
2023/12/10 03:30:29;;;;;;;3.58;2.05;;;;;;;;;;5076970;28;20024;-21
2023/12/10 03:32:55;;;;;;;3.40;1.88;;;;;;;;;;5077139;28;20032;-20
2023/12/10 03:35:21;;;;;;;3.67;1.90;;;;;;;;;;5076912;28;20025;-21
2023/12/10 03:37:47;;;;;;;4.97;2.25;;;;;;;;;;5076932;28;20413;-18
2023/12/10 03:40:13;;;;;;;5.80;2.15;;;;;;;;;;5076697;28;20052;-20
2023/12/10 03:42:40;;;;;;;4.78;2.15;;;;;;;;;;5076628;28;20099;-20
2023/12/10 03:45:06;;;;;;;4.40;2.05;;;;;;;;;;5076717;28;20025;-24
2023/12/10 03:47:32;;;;;;;3.90;2.30;;;;;;;;;;5076571;28;20048;-19
2023/12/10 03:49:58;;;;;;;4.40;2.28;;;;;;;;;;5076636;28;20024;-17
2023/12/10 03:52:25;;;;;;;4.30;2.53;;;;;;;;;;5076464;28;20029;-23
2023/12/10 03:54:51;;;;;;;3.75;2.42;;;;;;;;;;5076756;28;20479;-24
2023/12/10 03:57:17;;;;;;;3.80;2.00;;;;;;;;;;5076452;28;20039;-20
2023/12/10 03:59:43;;;;;;;4.97;2.25;;;;;;;;;;5076374;28;20059;-21
2023/12/10 04:02:09;;;;;;;6.47;2.60;;;;;;;;;;5076577;28;20371;-21
2023/12/10 04:04:36;;;;;;;5.63;2.33;;;;;;;;;;5076042;28;20040;-19
2023/12/10 04:07:03;;;;;;;4.45;2.33;;;;;;;;;;5076553;28;20352;-18
2023/12/10 04:09:29;;;;;;;4.75;2.35;;;;;;;;;;5075266;28;20035;-18
2023/12/10 04:11:56;;;;;;;3.10;2.22;;;;;;;;;;5076147;28;20501;-20
2023/12/10 04:14:23;;;;;;;4.50;2.10;;;;;;;;;;5075134;28;20047;-19
2023/12/10 04:16:49;;;;;;;3.35;1.95;;;;;;;;;;5076065;28;20101;-22
2023/12/10 04:19:15;;;;;;;3.17;1.92;;;;;;;;;;5076432;28;20032;-20
2023/12/10 04:21:41;;;;;;;5.20;2.83;;;;;;;;;;5075986;28;20355;-20
2023/12/10 04:24:07;;;;;;;5.30;3.70;;;;;;;;;;5076105;28;20035;-23
2023/12/10 04:26:34;;;;;;;3.80;1.80;;;;;;;;;;5076092;28;20013;-18
2023/12/10 04:29:00;;;;;;;4.43;2.28;;;;;;;;;;5076068;28;20024;-20
2023/12/10 04:31:26;;;;;;;4.18;1.88;;;;;;;;;;5075777;28;20095;-21
2023/12/10 04:33:53;;;;;;;3.25;2.15;;;;;;;;;;5075656;28;20028;-21
2023/12/10 04:36:19;;;;;;;4.50;1.85;;;;;;;;;;5075942;28;20099;-22
2023/12/10 04:38:46;;;;;;;4.38;2.38;;;;;;;;;;5075844;28;20432;-19
2023/12/10 04:41:12;;;;;;;3.00;1.80;;;;;;;;;;5075505;28;20475;-19
2023/12/10 04:43:38;;;;;;;2.92;2.00;;;;;;;;;;5075367;28;20024;-17
2023/12/10 04:46:05;;;;;;;3.33;2.00;;;;;;;;;;5075752;28;20029;-19
2023/12/10 04:48:31;;;;;;;5.03;2.28;;;;;;;;;;5075457;28;20046;-20
2023/12/10 04:50:57;;;;;;;6.10;2.20;;;;;;;;;;5075401;28;20101;-21
2023/12/10 04:53:23;;;;;;;3.42;2.08;;;;;;;;;;5075326;28;20355;-18
2023/12/10 04:55:50;;;;;;;2.60;1.83;;;;;;;;;;5075616;28;20044;-19
2023/12/10 04:58:16;;;;;;;4.45;2.50;;;;;;;;;;5075056;28;20039;-20
2023/12/10 05:00:43;;;;;;;3.75;2.13;;;;;;;;;;5075107;28;20166;-21
2023/12/10 05:03:09;;;;;;;4.85;2.30;;;;;;;;;;5075343;28;20345;-26
2023/12/10 05:05:35;;;;;;;3.28;2.15;;;;;;;;;;5074902;28;20540;-21
2023/12/10 05:08:02;;;;;;;5.18;2.00;;;;;;;;;;5075087;28;20039;-21
2023/12/10 05:10:29;;;;;;;3.05;2.47;;;;;;;;;;5075326;28;20405;-19
2023/12/10 05:12:55;;;;;;;3.75;2.42;;;;;;;;;;5074963;28;20094;-18
2023/12/10 05:15:21;;;;;;;4.70;2.22;;;;;;;;;;5075257;28;20098;-18
2023/12/10 05:17:47;;;;;;;3.72;1.75;;;;;;;;;;5074974;28;20021;-22
2023/12/10 05:20:13;;;;;;;3.75;2.20;;;;;;;;;;5075395;28;20052;-22
2023/12/10 05:22:39;;;;;;;3.50;2.08;;;;;;;;;;5074775;28;20085;-19
2023/12/10 05:25:07;;;;;;;5.43;2.25;;;;;;;;;;5075383;28;20374;-18
2023/12/10 05:27:33;;;;;;;5.40;2.80;;;;;;;;;;5074772;28;20090;-20
2023/12/10 05:30:00;;;;;;;4.40;2.28;;;;;;;;;;5075067;28;20329;-18
2023/12/10 05:32:26;;;;;;;5.30;2.78;;;;;;;;;;5074689;28;20028;-19
2023/12/10 05:34:53;;;;;;;4.72;2.50;;;;;;;;;;5075042;28;20044;-19
2023/12/10 05:37:20;;;;;;;4.15;2.20;;;;;;;;;;5074977;28;20372;-20
2023/12/10 05:39:46;;;;;;;3.15;1.80;;;;;;;;;;5074641;28;20178;-18
2023/12/10 05:42:12;;;;;;;3.70;2.10;;;;;;;;;;5075091;28;20115;-22
2023/12/10 05:44:38;;;;;;;3.35;2.33;;;;;;;;;;5074564;28;20031;-22
2023/12/10 05:47:05;;;;;;;4.25;2.03;;;;;;;;;;5074604;28;20075;-20
2023/12/10 05:49:31;;;;;;;6.00;2.17;;;;;;;;;;5074846;28;20092;-20
2023/12/10 05:51:57;;;;;;;3.83;2.08;;;;;;;;;;5074775;28;20374;-19
2023/12/10 05:54:23;;;;;;;5.20;2.60;;;;;;;;;;5074785;28;20043;-18
2023/12/10 05:56:50;;;;;;;3.75;2.15;;;;;;;;;;5074804;28;20039;-20
2023/12/10 05:59:16;;;;;;;5.25;2.17;;;;;;;;;;5074435;28;20024;-19
2023/12/10 06:01:42;;;;;;;6.93;2.20;;;;;;;;;;5075013;28;20021;-18
2023/12/10 06:04:08;;;;;;;3.60;1.80;;;;;;;;;;5074686;28;20040;-19
2023/12/10 06:06:34;;;;;;;4.40;2.20;;;;;;;;;;5074224;28;20384;-23
2023/12/10 06:09:00;;;;;;;5.78;2.38;;;;;;;;;;5074391;28;20025;-23
2023/12/10 06:11:26;;;;;;;3.72;1.77;;;;;;;;;;5078238;28;20029;-19
2023/12/10 06:13:53;;;;;;;4.75;2.28;;;;;;;;;;5078368;28;20041;-19
2023/12/10 06:16:19;;;;;;;4.75;3.00;;;;;;;;;;5078679;28;20048;-21
2023/12/10 06:18:45;;;;;;;4.47;2.15;;;;;;;;;;5078567;28;20047;-17
2023/12/10 06:21:11;;;;;;;3.90;2.00;;;;;;;;;;5078205;28;20024;-26
2023/12/10 06:23:37;;;;;;;3.05;1.92;;;;;;;;;;5078161;28;20025;-20
2023/12/10 06:26:04;;;;;;;3.28;2.20;;;;;;;;;;5078216;28;20032;-23
2023/12/10 06:28:30;;;;;;;4.55;2.25;;;;;;;;;;5078393;28;20092;-21
2023/12/10 06:30:58;;;;;;;6.88;2.67;;;;;;;;;;5078372;28;20032;-23
2023/12/10 06:33:24;;;;;;;3.90;2.00;;;;;;;;;;5077942;28;20028;-20
2023/12/10 06:35:50;;;;;;;4.90;2.70;;;;;;;;;;5078232;28;20037;-21
2023/12/10 06:38:16;;;;;;;3.47;2.17;;;;;;;;;;5078235;28;20024;-18
2023/12/10 06:40:43;;;;;;;6.13;2.88;;;;;;;;;;5078089;28;20413;-22
2023/12/10 06:43:10;;;;;;;4.30;2.13;;;;;;;;;;5077705;28;20017;-19
2023/12/10 06:45:37;;;;;;;3.25;1.83;;;;;;;;;;5078106;28;20103;-19
2023/12/10 06:48:03;;;;;;;4.53;2.08;;;;;;;;;;5078016;28;20033;-20
2023/12/10 06:50:33;;;;;;;6.05;2.55;;;;;;;;;;5078002;28;20040;-22
2023/12/10 06:52:59;;;;;;;4.25;2.05;;;;;;;;;;5077616;28;20028;-19
2023/12/10 06:55:25;;;;;;;3.30;2.10;;;;;;;;;;5077919;28;20367;-18
2023/12/10 06:57:51;;;;;;;4.60;2.50;;;;;;;;;;5077626;28;20457;-22
2023/12/10 07:00:19;;;;;;;4.13;2.03;;;;;;;;;;5077503;28;20024;-20
2023/12/10 07:02:46;;;;;;;5.85;2.55;;;;;;;;;;5077652;28;20374;-20
2023/12/10 07:05:12;;;;;;;3.00;1.98;;;;;;;;;;5077246;28;20048;-20
2023/12/10 07:07:38;;;;;;;5.60;2.40;;;;;;;;;;5077349;28;20039;-19
2023/12/10 07:10:05;;;;;;;4.03;2.30;;;;;;;;;;5077348;28;20103;-20
2023/12/10 07:12:31;;;;;;;2.67;1.95;;;;;;;;;;5077280;28;20028;-18
2023/12/10 07:14:57;;;;;;;3.40;2.30;;;;;;;;;;5077565;28;20452;-19
2023/12/10 07:17:23;;;;;;;3.30;2.13;;;;;;;;;;5077781;28;20348;-19
2023/12/10 07:19:49;;;;;;;5.00;2.42;;;;;;;;;;5077676;28;20032;-20
2023/12/10 07:22:16;;;;;;;5.70;2.67;;;;;;;;;;5076857;28;20024;-19
2023/12/10 07:24:42;;;;;;;8.65;3.42;;;;;;;;;;5077362;28;20079;-18
2023/12/10 07:27:08;;;;;;;6.15;2.47;;;;;;;;;;5076125;28;20029;-20
2023/12/10 07:29:34;;;;;;;4.60;2.00;;;;;;;;;;5076035;28;20467;-21
2023/12/10 07:32:01;;;;;;;4.35;2.30;;;;;;;;;;5075957;28;20456;-22
2023/12/10 07:34:27;;;;;;;4.15;2.05;;;;;;;;;;5075976;28;20040;-21
2023/12/10 07:36:53;;;;;;;4.28;2.03;;;;;;;;;;5077171;28;20036;-20
2023/12/10 07:39:19;;;;;;;6.50;3.67;;;;;;;;;;5077031;28;20073;-21
2023/12/10 07:41:45;;;;;;;5.93;2.30;;;;;;;;;;5075811;28;20032;-18
2023/12/10 07:44:11;;;;;;;3.25;2.03;;;;;;;;;;5076668;28;20028;-20
2023/12/10 07:46:38;;;;;;;4.97;2.55;;;;;;;;;;5076949;28;20040;-22
2023/12/10 07:49:04;;;;;;;3.63;2.17;;;;;;;;;;5076691;28;20356;-19
2023/12/10 07:51:30;;;;;;;4.25;2.78;;;;;;;;;;5076860;28;20028;-21
2023/12/10 07:53:56;;;;;;;5.70;2.70;;;;;;;;;;5076477;28;20056;-20
2023/12/10 07:56:22;;;;;;;4.75;2.95;;;;;;;;;;5076488;28;20020;-18
2023/12/10 07:58:49;;;;;;;3.28;1.98;;;;;;;;;;5076451;28;20024;-19
2023/12/10 08:01:15;;;;;;;4.80;2.88;;;;;;;;;;5076869;28;20112;-21
2023/12/10 08:03:41;;;;;;;3.60;2.15;;;;;;;;;;5076584;28;20142;-23
2023/12/10 08:06:08;;;;;;;4.93;2.00;;;;;;;;;;5076079;28;20044;-23
2023/12/10 08:08:34;;;;;;;4.88;2.10;;;;;;;;;;5076523;28;20386;-20
2023/12/10 08:11:03;;;;;;;4.10;2.33;;;;;;;;;;5076239;28;20024;-19
2023/12/10 08:13:29;;;;;;;4.68;2.08;;;;;;;;;;5076073;28;20020;-22
2023/12/10 08:15:56;;;;;;;3.97;2.45;;;;;;;;;;5076423;28;20063;-20
2023/12/10 08:18:22;;;;;;;4.05;2.10;;;;;;;;;;5076343;28;20043;-19
2023/12/10 08:20:48;;;;;;;3.53;2.25;;;;;;;;;;5076180;28;20448;-18
2023/12/10 08:23:14;;;;;;;4.05;1.98;;;;;;;;;;5075869;28;20028;-23
2023/12/10 08:25:40;;;;;;;5.85;2.85;;;;;;;;;;5076227;28;20128;-20
2023/12/10 08:28:07;;;;;;;5.50;2.28;;;;;;;;;;5076146;28;20347;-22
2023/12/10 08:30:33;;;;;;;4.65;1.98;;;;;;;;;;5076038;28;20039;-21
2023/12/10 08:32:59;;;;;;;3.45;2.38;;;;;;;;;;5074898;28;20371;-22
2023/12/10 08:35:26;;;;;;;4.45;2.28;;;;;;;;;;5076259;28;20541;-19
2023/12/10 08:37:52;;;;;;;4.38;2.40;;;;;;;;;;5075976;28;20040;-18
2023/12/10 08:40:18;;;;;;;4.93;2.03;;;;;;;;;;5076127;28;20059;-19
2023/12/10 08:42:45;;;;;;;4.57;2.38;;;;;;;;;;5076020;28;20294;-21
2023/12/10 08:45:11;;;;;;;3.42;2.75;;;;;;;;;;5075541;28;20020;-23
2023/12/10 08:47:38;;;;;;;5.22;2.70;;;;;;;;;;5075789;28;20017;-18
2023/12/10 08:50:04;;;;;;;6.13;2.22;;;;;;;;;;5075728;28;20024;-20
2023/12/10 08:52:30;;;;;;;4.45;2.50;;;;;;;;;;5075340;28;20090;-21
2023/12/10 08:54:57;;;;;;;4.80;2.45;;;;;;;;;;5075375;28;20086;-18
2023/12/10 08:57:24;;;;;;;4.75;2.17;;;;;;;;;;5075290;28;20093;-19
2023/12/10 08:59:50;;;;;;;4.70;2.35;;;;;;;;;;5075205;28;20028;-18
2023/12/10 09:02:18;;;;;;;4.45;2.28;;;;;;;;;;5075110;28;20021;-17
2023/12/10 09:04:44;;;;;;;3.42;1.75;;;;;;;;;;5074960;28;20041;-19
2023/12/10 09:07:11;;;;;;;3.95;2.00;;;;;;;;;;5075718;28;20016;-20
2023/12/10 09:09:37;;;;;;;4.43;1.88;;;;;;;;;;5075103;28;20059;-20
2023/12/10 09:12:04;;;;;;;5.35;2.10;;;;;;;;;;5075003;28;20035;-23
2023/12/10 09:14:30;;;;;;;4.53;2.58;;;;;;;;;;5075012;28;20024;-20
2023/12/10 09:16:58;;;;;;;4.32;2.20;;;;;;;;;;5075222;28;20103;-18
2023/12/10 09:19:25;;;;;;;4.50;2.25;;;;;;;;;;5074823;28;20112;-18
2023/12/10 09:21:51;;;;;;;4.45;2.42;;;;;;;;;;5075113;28;20410;-21
2023/12/10 09:24:17;;;;;;;5.00;2.08;;;;;;;;;;5074890;28;20031;-19
2023/12/10 09:26:44;;;;;;;5.05;3.15;;;;;;;;;;5074857;28;20024;-17
2023/12/10 09:29:10;;;;;;;4.57;1.77;;;;;;;;;;5074786;28;20025;-18
2023/12/10 09:31:36;;;;;;;4.18;2.20;;;;;;;;;;5074831;28;20021;-21
2023/12/10 09:34:03;;;;;;;6.82;2.40;;;;;;;;;;5074752;28;20040;-21
2023/12/10 09:36:29;;;;;;;3.85;2.13;;;;;;;;;;5074992;28;20091;-19
2023/12/10 09:38:55;;;;;;;4.70;2.03;;;;;;;;;;5074980;28;20085;-19
2023/12/10 09:41:21;;;;;;;2.60;1.70;;;;;;;;;;5074640;28;20462;-19
2023/12/10 09:43:47;;;;;;;3.17;2.10;;;;;;;;;;5074682;28;20024;-18
2023/12/10 09:46:14;;;;;;;4.47;2.05;;;;;;;;;;5075162;28;20035;-21
2023/12/10 09:48:41;;;;;;;5.25;2.05;;;;;;;;;;5074601;28;20078;-18
2023/12/10 09:51:08;;;;;;;3.70;2.00;;;;;;;;;;5074592;28;20082;-20
2023/12/10 09:53:34;;;;;;;4.57;2.05;;;;;;;;;;5074511;28;20021;-19
2023/12/10 09:56:00;;;;;;;7.93;2.78;;;;;;;;;;5074528;28;20029;-18
2023/12/10 09:58:26;;;;;;;4.47;2.42;;;;;;;;;;5075275;28;20052;-20
2023/12/10 10:00:52;;;;;;;6.15;2.30;;;;;;;;;;5074668;28;20032;-18
2023/12/10 10:03:20;;;;;;;3.55;2.20;;;;;;;;;;5074331;28;20112;-22
2023/12/10 10:05:46;;;;;;;4.45;2.10;;;;;;;;;;5074187;28;20384;-19
2023/12/10 10:08:12;;;;;;;5.57;2.72;;;;;;;;;;5074459;28;20036;-20
2023/12/10 10:10:39;;;;;;;5.85;2.17;;;;;;;;;;5074660;28;20415;-22
2023/12/10 10:13:08;;;;;;;3.75;2.03;;;;;;;;;;5074423;28;20033;-20
2023/12/10 10:15:34;;;;;;;3.88;2.30;;;;;;;;;;5074622;28;20047;-21
2023/12/10 10:18:00;;;;;;;4.63;1.95;;;;;;;;;;5074644;28;20025;-19
2023/12/10 10:20:27;;;;;;;4.63;2.22;;;;;;;;;;5074172;28;20086;-21
2023/12/10 10:22:56;;;;;;;4.82;2.40;;;;;;;;;;5074220;28;20036;-28
2023/12/10 10:25:22;;;;;;;5.13;2.72;;;;;;;;;;5074480;28;20033;-21
2023/12/10 10:27:50;;;;;;;5.25;2.67;;;;;;;;;;5074492;28;20147;-20
2023/12/10 10:30:16;;;;;;;5.40;2.10;;;;;;;;;;5074231;28;20024;-20
2023/12/10 10:32:44;;;;;;;5.57;1.55;;;;;;;;;;5074378;28;20356;-19
2023/12/10 10:35:11;;;;;;;4.22;2.20;;;;;;;;;;5074186;28;20463;-20
2023/12/10 10:37:37;;;;;;;4.57;2.78;;;;;;;;;;5074147;28;20027;-19
2023/12/10 10:40:04;;;;;;;5.55;2.53;;;;;;;;;;5074596;28;20491;-20
2023/12/10 10:42:30;;;;;;;3.72;2.20;;;;;;;;;;5074039;28;20016;-19
2023/12/10 10:44:56;;;;;;;5.50;2.42;;;;;;;;;;5074356;28;20040;-18
2023/12/10 10:47:23;;;;;;;4.53;2.20;;;;;;;;;;5074066;28;20398;-20
2023/12/10 10:49:51;;;;;;;4.63;2.65;;;;;;;;;;5073983;28;20029;-20
2023/12/10 10:52:20;;;;;;;6.30;2.28;;;;;;;;;;5074193;28;20020;-22
2023/12/10 10:54:48;;;;;;;3.92;2.33;;;;;;;;;;5074490;28;20020;-20
2023/12/10 10:57:27;;;;;;;6.10;2.50;;;;;;;;;;5076897;28;20094;-20
2023/12/10 10:59:53;;;;;;;2.13;1.83;;;;;;;;;;5077816;28;20119;-18
2023/12/10 11:02:19;;;;;;;4.00;2.08;;;;;;;;;;5077777;28;20423;-18
2023/12/10 11:04:49;;;;;;;4.05;2.53;;;;;;;;;;5077299;28;20040;-19
2023/12/10 11:07:16;;;;;;;4.00;2.53;;;;;;;;;;5077484;28;20469;-18
2023/12/10 11:10:00;;;;;;;3.20;1.95;;;;;;;;;;5077411;28;20363;-19
2023/12/10 11:12:45;;;;;;;4.65;2.90;;;;;;;;;;5077517;28;20029;-22
2023/12/10 11:15:18;;;;;;;3.83;1.70;;;;;;;;;;5077622;28;20165;-19
2023/12/10 11:18:04;;;;;;;5.57;2.58;;;;;;;;;;5077267;28;20028;-18
2023/12/10 11:20:34;;;;;;;5.30;2.10;;;;;;;;;;5077170;28;20081;-20
2023/12/10 11:23:10;;;;;;;5.30;3.03;;;;;;;;;;5077372;28;20078;-21
2023/12/10 11:25:38;;;;;;;4.57;2.28;;;;;;;;;;5077448;28;20020;-18
2023/12/10 11:28:14;;;;;;;3.70;2.20;;;;;;;;;;5077074;28;20451;-20
2023/12/10 11:30:41;;;;;;;3.70;2.88;;;;;;;;;;5077038;28;20031;-19
2023/12/10 11:33:08;;;;;;;4.22;2.22;;;;;;;;;;5077457;28;20040;-18
2023/12/10 11:35:35;;;;;;;4.40;2.58;;;;;;;;;;5077210;28;20032;-17
2023/12/10 11:38:01;;;;;;;2.83;1.50;;;;;;;;;;5076868;28;20086;-18
2023/12/10 11:40:28;;;;;;;5.93;2.03;;;;;;;;;;5076773;28;20035;-18
2023/12/10 11:43:01;;;;;;;7.88;2.67;;;;;;;;;;5076644;28;20028;-20
2023/12/10 11:45:27;;;;;;;4.13;2.40;;;;;;;;;;5077029;28;20020;-20
2023/12/10 11:47:55;;;;;;;4.40;2.38;;;;;;;;;;5076664;28;20017;-21
2023/12/10 11:50:21;;;;;;;3.53;2.47;;;;;;;;;;5076667;28;20086;-17
2023/12/10 11:52:48;;;;;;;4.55;2.13;;;;;;;;;;5076768;28;20024;-20
2023/12/10 11:55:14;;;;;;;3.90;2.42;;;;;;;;;;5076485;28;20025;-21
2023/12/10 11:57:44;;;;;;;5.68;2.33;;;;;;;;;;5076774;28;20024;-20
2023/12/10 12:00:14;;;;;;;5.10;2.38;;;;;;;;;;5076663;28;20031;-17
2023/12/10 12:02:44;;;;;;;3.10;1.98;;;;;;;;;;5076366;28;20309;-20
2023/12/10 12:05:14;;;;;;;4.07;2.47;;;;;;;;;;5076366;28;20048;-21
2023/12/10 12:07:44;;;;;;;3.43;2.07;;;;;;;;;;5075197;28;20020;-20
2023/12/10 12:10:14;;;;;;;5.15;2.28;;;;;;;;;;5076481;28;20025;-19
2023/12/10 12:12:40;;;;;;;3.85;1.95;;;;;;;;;;5076124;28;20033;-21
2023/12/10 12:15:07;;;;;;;4.80;2.10;;;;;;;;;;5076106;28;20028;-20
2023/12/10 12:17:35;;;;;;;5.85;2.40;;;;;;;;;;5075115;28;20033;-20
2023/12/10 12:20:22;;;;;;;6.97;2.85;;;;;;;;;;5076031;28;20078;-21
2023/12/10 12:22:49;;;;;;;6.78;2.53;;;;;;;;;;5075973;28;20043;-21
2023/12/10 12:25:15;;;;;;;4.93;2.15;;;;;;;;;;5075968;28;20028;-21
2023/12/10 12:27:41;;;;;;;3.80;2.22;;;;;;;;;;5075946;28;20025;-20
2023/12/10 12:30:08;;;;;;;3.97;2.65;;;;;;;;;;5075840;28;20031;-21
2023/12/10 12:32:34;;;;;;;2.58;1.90;;;;;;;;;;5075687;28;20052;-19
2023/12/10 12:35:00;;;;;;;4.10;2.28;;;;;;;;;;5076041;28;20524;-22
2023/12/10 12:37:27;;;;;;;4.55;2.22;;;;;;;;;;5076281;28;20347;-18
2023/12/10 12:39:54;;;;;;;4.35;2.38;;;;;;;;;;5075624;28;20072;-21
2023/12/10 12:42:22;;;;;;;4.55;2.58;;;;;;;;;;5075791;28;20059;-23
2023/12/10 12:44:48;;;;;;;3.30;2.22;;;;;;;;;;5075502;28;20025;-18
2023/12/10 12:47:14;;;;;;;4.63;2.33;;;;;;;;;;5075564;28;20025;-19
2023/12/10 12:49:41;;;;;;;5.55;2.45;;;;;;;;;;5075756;28;20033;-20
2023/12/10 12:52:08;;;;;;;4.40;2.25;;;;;;;;;;5075363;28;20021;-20
2023/12/10 12:54:34;;;;;;;4.93;2.28;;;;;;;;;;5075656;28;20024;-19
2023/12/10 12:57:00;;;;;;;6.75;2.33;;;;;;;;;;5075350;28;20456;-21
2023/12/10 12:59:28;;;;;;;2.83;1.80;;;;;;;;;;5075238;28;20032;-18
2023/12/10 13:01:54;;;;;;;3.88;1.90;;;;;;;;;;5075456;28;20025;-20
2023/12/10 13:04:21;;;;;;;6.13;2.78;;;;;;;;;;5075262;28;20036;-20
2023/12/10 13:06:47;;;;;;;4.60;2.00;;;;;;;;;;5075441;28;20020;-23
2023/12/10 13:09:13;;;;;;;3.47;2.33;;;;;;;;;;5075132;28;20478;-18
2023/12/10 13:11:40;;;;;;;5.25;2.42;;;;;;;;;;5075361;28;20051;-21
2023/12/10 13:14:06;;;;;;;4.47;2.30;;;;;;;;;;5074981;28;20086;-20
2023/12/10 13:16:32;;;;;;;6.05;2.45;;;;;;;;;;5075285;28;20439;-18
2023/12/10 13:18:58;;;;;;;5.90;2.85;;;;;;;;;;5075380;28;20063;-19
2023/12/10 13:21:25;;;;;;;6.35;1.92;;;;;;;;;;5075136;28;20024;-17
2023/12/10 13:23:51;;;;;;;3.03;2.03;;;;;;;;;;5074929;28;20031;-17
2023/12/10 13:26:17;;;;;;;4.90;2.22;;;;;;;;;;5075148;28;20039;-20
2023/12/10 13:28:44;;;;;;;4.32;2.45;;;;;;;;;;5074839;28;20356;-18
2023/12/10 13:31:11;;;;;;;4.15;2.10;;;;;;;;;;5074859;28;20029;-21
2023/12/10 13:33:38;;;;;;;6.07;3.30;;;;;;;;;;5074986;28;20024;-20
2023/12/10 13:36:04;;;;;;;5.63;2.22;;;;;;;;;;5075031;28;20363;-21
2023/12/10 13:38:31;;;;;;;3.92;2.10;;;;;;;;;;5074657;28;20025;-18
2023/12/10 13:40:57;;;;;;;6.63;2.25;;;;;;;;;;5074854;28;20060;-20
2023/12/10 13:43:23;;;;;;;4.22;2.17;;;;;;;;;;5074879;28;20343;-17
2023/12/10 13:45:49;;;;;;;6.28;2.67;;;;;;;;;;5074631;28;20035;-19
2023/12/10 13:48:16;;;;;;;3.90;2.80;;;;;;;;;;5074643;28;20021;-19
2023/12/10 13:50:42;;;;;;;2.65;2.10;;;;;;;;;;5074617;28;20095;-22
2023/12/10 13:53:09;;;;;;;5.45;1.70;;;;;;;;;;5075138;28;20032;-22
2023/12/10 13:55:36;;;;;;;6.35;2.30;;;;;;;;;;5074793;28;20351;-19
2023/12/10 13:58:02;;;;;;;5.60;2.33;;;;;;;;;;5074551;28;20029;-20
2023/12/10 14:00:28;;;;;;;2.47;1.65;;;;;;;;;;5074394;28;20452;-19
2023/12/10 14:02:54;;;;;;;5.70;2.55;;;;;;;;;;5074385;28;20028;-20
2023/12/10 14:05:21;;;;;;;4.43;2.83;;;;;;;;;;5074269;28;20059;-23
2023/12/10 14:07:48;;;;;;;4.68;2.53;;;;;;;;;;5074699;28;20040;-23
2023/12/10 14:10:15;;;;;;;3.78;2.40;;;;;;;;;;5074474;28;20082;-20
2023/12/10 14:12:41;;;;;;;5.32;2.28;;;;;;;;;;5074338;28;20024;-20
2023/12/10 14:15:08;;;;;;;3.88;2.10;;;;;;;;;;5074386;28;20042;-19
2023/12/10 14:17:36;;;;;;;5.15;2.65;;;;;;;;;;5074372;28;20489;-18
2023/12/10 14:20:03;;;;;;;4.03;2.28;;;;;;;;;;5074287;28;20025;-18
2023/12/10 14:22:30;;;;;;;4.38;1.85;;;;;;;;;;5074194;28;20095;-18
2023/12/10 14:24:56;;;;;;;4.88;2.05;;;;;;;;;;5075037;28;20024;-19
2023/12/10 14:27:22;;;;;;;3.80;2.13;;;;;;;;;;5074525;28;20086;-20
2023/12/10 14:29:48;;;;;;;4.38;2.58;;;;;;;;;;5074235;28;20036;-20
2023/12/10 14:32:17;;;;;;;4.68;2.30;;;;;;;;;;5076762;28;20063;-21
2023/12/10 14:34:43;;;;;;;4.43;2.10;;;;;;;;;;5078109;28;20024;-18
2023/12/10 14:37:09;;;;;;;3.97;1.95;;;;;;;;;;5078291;28;20023;-18
2023/12/10 14:39:37;;;;;;;3.53;2.10;;;;;;;;;;5077911;28;20024;-19